Time;durP1;ratioP1;P1;durP2;ratioP2;P2;SDS_P1;SDS_P2;PMS_P1;PMS_P2;Temp;Humidity;BMP_temperature;BMP_pressure;BME280_temperature;BME280_humidity;BME280_pressure;Samples;Min_cycle;Max_cycle;Signal;HPM_P1;HPM_P2
2021/01/11 00:01:58;;;;;;;22.13;15.97;;;-1.40;99.90;;;;;;5022464;28;20403;-58
2021/01/11 00:04:24;;;;;;;23.07;17.13;;;-1.40;99.90;;;;;;5022498;28;20180;-55
2021/01/11 00:06:50;;;;;;;23.00;17.40;;;-1.50;99.90;;;;;;5022908;28;20411;-55
2021/01/11 00:09:16;;;;;;;33.33;19.23;;;-1.50;99.90;;;;;;5022977;28;20168;-55
2021/01/11 00:11:42;;;;;;;24.40;18.30;;;-1.50;99.90;;;;;;5024155;28;20458;-54
2021/01/11 00:14:08;;;;;;;27.63;19.90;;;-1.50;99.90;;;;;;5024032;28;20407;-55
2021/01/11 00:16:35;;;;;;;24.03;17.70;;;-1.50;99.90;;;;;;5024275;28;20183;-55
2021/01/11 00:19:02;;;;;;;26.37;19.80;;;-1.50;99.90;;;;;;5026190;28;20627;-55
2021/01/11 00:21:28;;;;;;;22.30;18.20;;;-1.50;99.90;;;;;;5024452;28;20460;-54
2021/01/11 00:23:53;;;;;;;25.87;18.00;;;-1.50;99.90;;;;;;5023029;28;20447;-54
2021/01/11 00:26:19;;;;;;;24.53;17.83;;;-1.50;99.90;;;;;;5023120;28;20415;-53
2021/01/11 00:28:45;;;;;;;25.73;18.67;;;-1.60;99.90;;;;;;5024387;28;20811;-54
2021/01/11 00:31:11;;;;;;;22.90;17.93;;;-1.50;99.90;;;;;;5024325;28;20187;-53
2021/01/11 00:33:37;;;;;;;24.97;18.50;;;-1.60;99.90;;;;;;5005120;28;20187;-56
2021/01/11 00:36:04;;;;;;;26.37;17.97;;;-1.70;99.90;;;;;;5024480;28;20896;-56
2021/01/11 00:38:30;;;;;;;25.83;17.97;;;-1.70;99.90;;;;;;5023331;28;20453;-53
2021/01/11 00:40:56;;;;;;;21.93;16.50;;;-1.70;99.90;;;;;;5024320;28;20435;-56
2021/01/11 00:43:22;;;;;;;26.20;18.70;;;-1.60;99.90;;;;;;5023957;28;20430;-54
2021/01/11 00:45:47;;;;;;;24.33;15.83;;;-1.60;99.90;;;;;;5023480;28;20478;-57
2021/01/11 00:48:13;;;;;;;24.07;16.60;;;-1.60;99.90;;;;;;5024246;28;20199;-53
2021/01/11 00:50:38;;;;;;;23.27;16.20;;;-1.60;99.90;;;;;;5023786;28;20203;-57
2021/01/11 00:53:04;;;;;;;26.30;17.93;;;-1.60;99.90;;;;;;5022145;28;20628;-57
2021/01/11 00:55:29;;;;;;;20.10;15.20;;;-1.60;99.90;;;;;;5028946;28;20195;-53
2021/01/11 00:57:55;;;;;;;25.57;17.20;;;-1.60;99.90;;;;;;5028490;28;20207;-54
2021/01/11 01:00:21;;;;;;;20.83;15.27;;;-1.70;99.90;;;;;;5023872;28;20184;-57
2021/01/11 01:02:47;;;;;;;26.83;19.63;;;-1.70;99.90;;;;;;5023697;28;20242;-54
2021/01/11 01:05:14;;;;;;;21.50;16.10;;;-1.70;99.90;;;;;;5023736;28;20443;-56
2021/01/11 01:07:41;;;;;;;21.43;17.00;;;-1.70;99.90;;;;;;5023697;28;20491;-53
2021/01/11 01:10:08;;;;;;;26.17;18.73;;;-1.70;99.90;;;;;;5024004;28;20435;-53
2021/01/11 01:12:34;;;;;;;25.67;18.07;;;-1.70;99.90;;;;;;5023468;28;20447;-55
2021/01/11 01:15:00;;;;;;;26.57;18.93;;;-1.80;99.90;;;;;;5023113;28;20415;-56
2021/01/11 01:17:26;;;;;;;25.30;19.40;;;-1.80;99.90;;;;;;5023590;28;20407;-53
2021/01/11 01:19:51;;;;;;;23.20;16.40;;;-1.90;99.90;;;;;;5022171;28;20565;-54
2021/01/11 01:22:17;;;;;;;27.83;20.90;;;-1.90;99.90;;;;;;5022501;28;20925;-57
2021/01/11 01:24:45;;;;;;;24.83;17.43;;;-2.00;99.90;;;;;;5022043;28;20600;-55
2021/01/11 01:27:11;;;;;;;25.03;17.23;;;-2.00;99.90;;;;;;5022255;28;20195;-55
2021/01/11 01:29:36;;;;;;;25.17;18.13;;;-1.90;99.90;;;;;;5023146;28;20439;-54
2021/01/11 01:32:02;;;;;;;24.13;17.20;;;-1.90;99.90;;;;;;5022849;28;20223;-53
2021/01/11 01:34:28;;;;;;;24.60;18.60;;;-1.90;99.90;;;;;;5023892;28;20172;-54
2021/01/11 01:36:55;;;;;;;25.03;17.67;;;-1.80;99.90;;;;;;5023419;28;20613;-53
2021/01/11 01:39:21;;;;;;;22.40;16.60;;;-1.80;99.90;;;;;;5022848;28;20168;-56
2021/01/11 01:41:47;;;;;;;21.87;15.63;;;-1.80;99.90;;;;;;5023463;28;20430;-55
2021/01/11 01:44:12;;;;;;;24.03;17.17;;;-1.70;99.90;;;;;;5023243;28;20411;-54
2021/01/11 01:46:38;;;;;;;28.80;18.40;;;-1.80;99.90;;;;;;5023671;28;20176;-57
2021/01/11 01:49:05;;;;;;;25.83;16.90;;;-1.90;99.90;;;;;;5023037;28;20183;-57
2021/01/11 01:51:31;;;;;;;28.90;18.73;;;-1.90;99.90;;;;;;5022076;28;20286;-53
2021/01/11 01:53:57;;;;;;;23.33;16.90;;;-1.90;99.90;;;;;;5005470;28;20454;-56
2021/01/11 01:56:25;;;;;;;22.77;16.80;;;-1.80;99.90;;;;;;5023092;28;20418;-55
2021/01/11 01:58:51;;;;;;;21.23;15.27;;;-1.80;99.90;;;;;;5021825;28;20505;-54
2021/01/11 02:01:16;;;;;;;24.20;16.53;;;-1.80;99.90;;;;;;5023020;28;20506;-56
2021/01/11 02:03:42;;;;;;;24.60;16.43;;;-1.90;99.90;;;;;;5021232;28;20947;-55
2021/01/11 02:06:08;;;;;;;21.40;14.13;;;-2.00;99.90;;;;;;5022898;28;20176;-54
2021/01/11 02:08:53;;;;;;;23.57;16.03;;;-1.90;99.90;;;;;;5022312;28;20172;-55
2021/01/11 02:11:22;;;;;;;25.37;17.00;;;-2.10;99.90;;;;;;5021951;28;20657;-56
2021/01/11 02:13:56;;;;;;;22.83;15.80;;;-2.10;99.90;;;;;;5020877;28;20407;-57
2021/01/11 02:16:27;;;;;;;22.33;15.90;;;-2.10;99.90;;;;;;5037210;28;20400;-55
2021/01/11 02:19:39;;;;;;;22.23;16.20;;;-2.10;99.90;;;;;;5037838;28;20410;-56
2021/01/11 02:22:47;;;;;;;24.67;16.67;;;-2.10;99.90;;;;;;5040251;28;20398;-54
2021/01/11 02:25:19;;;;;;;25.70;17.33;;;-2.10;99.90;;;;;;4999190;28;20427;-55
2021/01/11 02:27:55;;;;;;;20.70;16.27;;;-2.10;99.90;;;;;;5000676;28;20491;-55
2021/01/11 02:30:40;;;;;;;25.77;17.47;;;-2.10;99.90;;;;;;5001511;28;20438;-55
2021/01/11 02:33:08;;;;;;;23.97;16.23;;;-2.10;99.90;;;;;;5001815;28;20446;-53
2021/01/11 02:35:58;;;;;;;19.10;16.30;;;-2.20;99.90;;;;;;5021090;28;20498;-56
2021/01/11 02:38:24;;;;;;;23.80;17.40;;;-2.20;99.90;;;;;;5021797;28;20392;-54
2021/01/11 02:40:50;;;;;;;28.90;20.50;;;-2.20;99.90;;;;;;5021258;28;20426;-54
2021/01/11 02:43:16;;;;;;;24.47;17.07;;;-2.30;99.90;;;;;;5021427;28;20407;-53
2021/01/11 02:45:42;;;;;;;26.40;17.10;;;-2.20;99.90;;;;;;5020202;28;20877;-56
2021/01/11 02:48:26;;;;;;;26.10;19.90;;;-2.20;99.90;;;;;;5001881;28;20214;-55
2021/01/11 02:51:21;;;;;;;28.70;20.90;;;-2.30;99.90;;;;;;5019977;28;20297;-56
2021/01/11 02:54:27;;;;;;;30.40;19.57;;;-2.20;99.90;;;;;;5018650;28;20512;-55
2021/01/11 02:57:21;;;;;;;25.40;18.43;;;-2.30;99.90;;;;;;5019400;28;20402;-56
2021/01/11 02:59:52;;;;;;;24.77;17.03;;;-2.30;99.90;;;;;;5019478;28;20426;-55
2021/01/11 03:02:20;;;;;;;25.97;19.40;;;-2.30;99.90;;;;;;5019624;28;20391;-53
2021/01/11 03:04:47;;;;;;;23.23;16.63;;;-2.20;99.90;;;;;;5020126;28;20415;-53
2021/01/11 03:07:12;;;;;;;26.73;18.87;;;-2.10;99.90;;;;;;5020201;28;20771;-54
2021/01/11 03:09:40;;;;;;;25.43;17.67;;;-2.00;99.90;;;;;;5019669;28;20419;-54
2021/01/11 03:12:07;;;;;;;21.43;16.67;;;-2.00;99.90;;;;;;5020325;28;20206;-57
2021/01/11 03:14:32;;;;;;;27.90;19.07;;;-2.10;99.90;;;;;;5002240;28;20425;-54
2021/01/11 03:16:58;;;;;;;26.03;18.87;;;-2.00;99.90;;;;;;5021811;28;20399;-56
2021/01/11 03:19:24;;;;;;;24.67;18.10;;;-2.00;99.90;;;;;;5004310;28;20457;-53
2021/01/11 03:21:50;;;;;;;26.00;18.53;;;-2.10;99.90;;;;;;5021238;28;20179;-56
2021/01/11 03:24:20;;;;;;;24.80;18.10;;;-2.20;99.90;;;;;;5020189;28;20206;-56
2021/01/11 03:26:46;;;;;;;22.23;16.77;;;-2.30;99.90;;;;;;5021376;28;20426;-54
2021/01/11 03:29:12;;;;;;;24.33;17.30;;;-2.40;99.90;;;;;;5020628;28;20818;-56
2021/01/11 03:31:39;;;;;;;26.00;19.20;;;-2.30;99.90;;;;;;5021565;28;20459;-54
2021/01/11 03:34:05;;;;;;;21.60;15.57;;;-2.10;99.90;;;;;;5020989;28;20446;-55
2021/01/11 03:36:31;;;;;;;28.00;19.17;;;-2.10;99.90;;;;;;5021662;28;20418;-54
2021/01/11 03:38:57;;;;;;;25.90;18.70;;;-2.10;99.90;;;;;;5020467;28;20498;-55
2021/01/11 03:41:22;;;;;;;27.57;18.27;;;-2.20;99.90;;;;;;5022136;28;20205;-54
2021/01/11 03:43:48;;;;;;;21.50;17.00;;;-2.20;99.90;;;;;;5020464;28;20411;-57
2021/01/11 03:46:15;;;;;;;24.67;17.00;;;-2.20;99.90;;;;;;5020894;28;20176;-56
2021/01/11 03:48:42;;;;;;;26.57;17.50;;;-2.20;99.90;;;;;;5025890;28;20617;-56
2021/01/11 03:51:08;;;;;;;22.40;15.90;;;-2.20;99.90;;;;;;5022724;28;20473;-54
2021/01/11 03:53:34;;;;;;;23.07;16.67;;;-2.20;99.90;;;;;;5020232;28;20456;-53
2021/01/11 03:56:09;;;;;;;27.73;17.70;;;-2.20;99.90;;;;;;5002776;28;20483;-55
2021/01/11 03:58:38;;;;;;;25.27;17.63;;;-2.40;99.90;;;;;;5020198;28;20958;-56
2021/01/11 04:01:04;;;;;;;25.83;17.20;;;-2.40;99.90;;;;;;5021985;28;20439;-53
2021/01/11 04:03:32;;;;;;;26.00;16.87;;;-2.40;99.90;;;;;;5022528;28;20407;-55
2021/01/11 04:06:01;;;;;;;23.57;16.87;;;-2.40;99.90;;;;;;5023472;28;20969;-55
2021/01/11 04:08:27;;;;;;;26.40;17.60;;;-2.40;99.90;;;;;;5024587;28;20415;-55
2021/01/11 04:10:52;;;;;;;25.37;16.43;;;-2.40;99.90;;;;;;5024520;28;20437;-57
2021/01/11 04:13:21;;;;;;;25.77;17.30;;;-2.40;99.90;;;;;;5024683;28;20509;-52
2021/01/11 04:15:47;;;;;;;28.10;17.57;;;-2.40;99.90;;;;;;5023086;28;20207;-56
2021/01/11 04:18:13;;;;;;;27.00;18.50;;;-2.40;99.90;;;;;;5033638;28;20410;-54
2021/01/11 04:20:39;;;;;;;21.47;14.20;;;-2.30;99.90;;;;;;5042856;28;20196;-54
2021/01/11 04:23:05;;;;;;;24.60;16.00;;;-2.40;99.90;;;;;;5043174;28;20450;-56
2021/01/11 04:25:31;;;;;;;24.70;19.20;;;-2.40;99.90;;;;;;5042062;28;20176;-56
2021/01/11 04:27:58;;;;;;;23.80;16.93;;;-2.50;99.90;;;;;;5041705;28;20441;-56
2021/01/11 04:30:24;;;;;;;23.97;17.47;;;-2.40;99.90;;;;;;5043104;28;20438;-55
2021/01/11 04:32:50;;;;;;;33.17;19.50;;;-2.50;99.90;;;;;;5042291;28;20454;-56
2021/01/11 04:35:16;;;;;;;26.63;18.70;;;-2.50;99.90;;;;;;5026773;28;20434;-53
2021/01/11 04:37:42;;;;;;;28.57;19.03;;;-2.60;99.90;;;;;;5025253;28;20407;-55
2021/01/11 04:40:10;;;;;;;26.57;18.13;;;-2.60;99.90;;;;;;5023776;28;20434;-57
2021/01/11 04:42:53;;;;;;;30.17;19.97;;;-2.60;99.90;;;;;;5023667;28;20974;-54
2021/01/11 04:45:20;;;;;;;24.33;17.40;;;-2.60;99.90;;;;;;5024227;28;20453;-53
2021/01/11 04:47:52;;;;;;;30.33;21.37;;;-2.50;99.90;;;;;;5024547;28;20436;-55
2021/01/11 04:50:18;;;;;;;23.83;16.70;;;-2.50;99.90;;;;;;5024970;28;20422;-54
2021/01/11 04:52:45;;;;;;;21.90;16.87;;;-2.40;99.90;;;;;;5023805;28;20469;-54
2021/01/11 04:55:12;;;;;;;23.40;17.50;;;-2.50;99.90;;;;;;5024434;28;20430;-54
2021/01/11 04:57:50;;;;;;;24.63;19.03;;;-2.60;99.90;;;;;;5024248;28;20479;-54
2021/01/11 05:00:28;;;;;;;27.10;18.97;;;-2.60;99.90;;;;;;5006140;28;20435;-52
2021/01/11 05:02:58;;;;;;;30.70;20.63;;;-2.60;99.90;;;;;;5024359;28;20422;-57
2021/01/11 05:05:24;;;;;;;27.37;18.80;;;-2.60;99.90;;;;;;5023190;28;20438;-56
2021/01/11 05:07:50;;;;;;;27.20;18.90;;;-2.60;99.90;;;;;;5022439;28;20523;-54
2021/01/11 05:10:20;;;;;;;25.27;19.40;;;-2.60;99.90;;;;;;5023865;28;20427;-54
2021/01/11 05:13:12;;;;;;;28.60;20.00;;;-2.50;99.90;;;;;;5023544;28;20188;-55
2021/01/11 05:15:42;;;;;;;28.80;18.87;;;-2.60;99.90;;;;;;5020775;28;20419;-54
2021/01/11 05:18:20;;;;;;;29.90;19.27;;;-2.50;99.90;;;;;;5022813;28;20505;-55
2021/01/11 05:20:46;;;;;;;33.10;19.83;;;-2.60;99.90;;;;;;5023337;28;20426;-55
2021/01/11 05:23:14;;;;;;;25.10;18.77;;;-2.60;99.90;;;;;;5023284;28;20965;-55
2021/01/11 05:25:42;;;;;;;22.80;18.20;;;-2.60;99.90;;;;;;5023579;28;20418;-54
2021/01/11 05:28:16;;;;;;;29.57;20.13;;;-2.60;99.90;;;;;;5022632;28;20958;-53
2021/01/11 05:30:46;;;;;;;26.60;18.63;;;-2.60;99.90;;;;;;5023494;28;20431;-57
2021/01/11 05:33:22;;;;;;;29.67;19.57;;;-2.50;99.90;;;;;;5022854;28;20486;-53
2021/01/11 05:36:04;;;;;;;28.57;20.00;;;-2.60;99.90;;;;;;5023719;28;20510;-54
2021/01/11 05:38:38;;;;;;;31.93;21.10;;;-2.50;99.90;;;;;;5021882;28;20406;-54
2021/01/11 05:41:14;;;;;;;27.17;18.80;;;-2.50;99.90;;;;;;5021330;28;20426;-55
2021/01/11 05:43:40;;;;;;;33.23;19.70;;;-2.50;99.90;;;;;;5019324;28;20429;-55
2021/01/11 05:46:28;;;;;;;28.67;19.87;;;-2.70;99.90;;;;;;5018756;28;20415;-56
2021/01/11 05:48:57;;;;;;;26.20;18.33;;;-2.80;99.90;;;;;;5019063;28;20458;-55
2021/01/11 05:51:25;;;;;;;31.53;19.27;;;-2.90;99.90;;;;;;5018473;28;20461;-55
2021/01/11 05:53:50;;;;;;;27.37;21.10;;;-2.90;99.90;;;;;;5018563;28;20411;-57
2021/01/11 05:56:16;;;;;;;29.57;19.43;;;-2.80;99.90;;;;;;5017818;28;20779;-57
2021/01/11 05:58:42;;;;;;;27.03;18.73;;;-2.70;99.90;;;;;;5022432;28;20176;-57
2021/01/11 06:01:07;;;;;;;33.30;21.40;;;-2.80;99.90;;;;;;5022622;28;20255;-56
2021/01/11 06:03:33;;;;;;;32.67;20.33;;;-2.70;99.90;;;;;;5022368;28;20439;-55
2021/01/11 06:05:59;;;;;;;25.50;18.50;;;-2.60;99.90;;;;;;5023430;28;20562;-57
2021/01/11 06:08:26;;;;;;;24.27;17.40;;;-2.70;99.90;;;;;;5022778;28;20414;-54
2021/01/11 06:10:53;;;;;;;29.93;19.43;;;-2.70;99.90;;;;;;5022087;28;20423;-53
2021/01/11 06:13:22;;;;;;;26.37;17.90;;;-2.70;99.90;;;;;;5021795;28;20991;-56
2021/01/11 06:15:50;;;;;;;28.07;18.67;;;-2.70;99.90;;;;;;5023955;28;20406;-54
2021/01/11 06:18:15;;;;;;;28.60;18.53;;;-2.70;99.90;;;;;;5020376;28;20406;-58
2021/01/11 06:20:47;;;;;;;25.70;17.53;;;-2.70;99.90;;;;;;5021176;28;20435;-56
2021/01/11 06:23:26;;;;;;;31.00;20.70;;;-2.70;99.90;;;;;;5022176;28;20562;-56
2021/01/11 06:25:52;;;;;;;31.70;22.17;;;-2.70;99.90;;;;;;5022425;28;20426;-53
2021/01/11 06:28:31;;;;;;;28.03;18.53;;;-2.80;99.90;;;;;;5022027;28;20411;-57
2021/01/11 06:31:13;;;;;;;26.97;18.23;;;-2.80;99.90;;;;;;5021654;28;20718;-54
2021/01/11 06:33:40;;;;;;;26.93;18.23;;;-2.80;99.90;;;;;;5022245;28;20577;-55
2021/01/11 06:36:23;;;;;;;27.90;19.10;;;-2.80;99.90;;;;;;5022432;28;20407;-57
2021/01/11 06:38:51;;;;;;;33.13;21.23;;;-2.80;99.90;;;;;;5023344;28;20399;-56
2021/01/11 06:41:18;;;;;;;31.57;20.03;;;-2.80;99.90;;;;;;5026921;28;20960;-56
2021/01/11 06:43:52;;;;;;;30.37;21.03;;;-2.80;99.90;;;;;;5024110;28;20434;-55
2021/01/11 06:46:29;;;;;;;30.50;21.27;;;-2.70;99.90;;;;;;5022231;28;20391;-54
2021/01/11 06:49:00;;;;;;;33.10;20.77;;;-2.70;99.90;;;;;;5021834;28;20446;-55
2021/01/11 06:51:30;;;;;;;28.43;19.63;;;-2.70;99.90;;;;;;5021772;28;20458;-54
2021/01/11 06:54:13;;;;;;;33.40;23.20;;;-2.60;99.90;;;;;;5019685;28;20430;-56
2021/01/11 06:56:39;;;;;;;37.37;25.40;;;-2.70;99.90;;;;;;5021498;28;20779;-54
2021/01/11 06:59:18;;;;;;;33.83;22.60;;;-2.70;99.90;;;;;;5021244;28;20413;-53
2021/01/11 07:01:45;;;;;;;36.83;23.47;;;-2.60;99.90;;;;;;5021246;28;20469;-56
2021/01/11 07:04:31;;;;;;;33.43;21.90;;;-2.70;99.90;;;;;;5020602;28;20442;-53
2021/01/11 07:06:59;;;;;;;34.37;23.33;;;-2.70;99.90;;;;;;5021080;28;20414;-57
2021/01/11 07:09:25;;;;;;;37.00;23.77;;;-2.70;99.90;;;;;;5019838;28;20589;-55
2021/01/11 07:11:51;;;;;;;41.50;23.20;;;-2.70;99.90;;;;;;5021415;28;20489;-53
2021/01/11 07:14:21;;;;;;;35.10;21.70;;;-2.70;99.90;;;;;;5021980;28;20180;-57
2021/01/11 07:16:52;;;;;;;31.80;21.50;;;-2.70;99.90;;;;;;5022353;28;20410;-56
2021/01/11 07:19:43;;;;;;;27.90;21.93;;;-2.70;99.90;;;;;;5021240;28;20454;-55
2021/01/11 07:22:12;;;;;;;30.77;19.97;;;-2.80;99.90;;;;;;5021979;28;20402;-57
2021/01/11 07:24:39;;;;;;;30.13;19.93;;;-2.70;99.90;;;;;;5021698;28;20419;-54
2021/01/11 07:27:04;;;;;;;27.93;19.97;;;-2.70;99.90;;;;;;5021103;28;20513;-56
2021/01/11 07:29:30;;;;;;;27.70;19.77;;;-2.70;99.90;;;;;;5021427;28;20458;-57
2021/01/11 07:31:56;;;;;;;31.37;20.57;;;-2.70;99.90;;;;;;5021013;28;20203;-58
2021/01/11 07:34:21;;;;;;;28.27;19.30;;;-2.70;99.90;;;;;;5018588;28;20176;-55
2021/01/11 07:36:48;;;;;;;27.20;19.10;;;-2.70;99.90;;;;;;5019037;28;20715;-53
2021/01/11 07:39:18;;;;;;;29.47;19.60;;;-2.60;99.90;;;;;;5017816;28;20254;-53
2021/01/11 07:41:53;;;;;;;24.27;17.20;;;-2.60;99.90;;;;;;5019011;28;20414;-55
2021/01/11 07:44:21;;;;;;;29.93;20.90;;;-2.50;99.90;;;;;;5018969;28;20973;-53
2021/01/11 07:46:54;;;;;;;28.83;20.00;;;-2.50;99.90;;;;;;5018294;28;20416;-54
2021/01/11 07:49:20;;;;;;;32.77;21.17;;;-2.50;99.90;;;;;;5017358;28;20466;-56
2021/01/11 07:51:47;;;;;;;31.20;19.63;;;-2.50;99.90;;;;;;5018703;28;20454;-58
2021/01/11 07:54:18;;;;;;;26.00;18.37;;;-2.60;99.90;;;;;;5017330;28;20167;-55
2021/01/11 07:56:44;;;;;;;25.37;18.07;;;-2.60;99.90;;;;;;5018658;28;20806;-59
2021/01/11 07:59:10;;;;;;;32.43;20.13;;;-2.60;99.90;;;;;;5018537;28;20407;-59
2021/01/11 08:01:38;;;;;;;27.33;18.40;;;-2.50;99.90;;;;;;5018712;28;20407;-55
2021/01/11 08:04:04;;;;;;;26.50;19.70;;;-2.50;99.90;;;;;;5019208;28;20493;-56
2021/01/11 08:06:51;;;;;;;27.10;18.50;;;-2.50;99.90;;;;;;5018075;28;20494;-57
2021/01/11 08:09:19;;;;;;;24.77;17.67;;;-2.40;99.90;;;;;;5017223;28;20383;-56
2021/01/11 08:11:46;;;;;;;29.37;20.10;;;-2.40;99.90;;;;;;5019038;28;20820;-57
2021/01/11 08:14:12;;;;;;;26.43;18.73;;;-2.30;99.90;;;;;;5017911;28;20478;-56
2021/01/11 08:16:40;;;;;;;27.10;20.10;;;-2.40;99.90;;;;;;5019218;28;20411;-57
2021/01/11 08:19:10;;;;;;;28.37;18.83;;;-2.30;99.90;;;;;;5018164;28;20565;-57
2021/01/11 08:21:39;;;;;;;25.17;17.63;;;-2.20;99.90;;;;;;5018229;28;20414;-54
2021/01/11 08:24:09;;;;;;;29.50;19.60;;;-2.20;99.90;;;;;;5017349;28;20407;-57
2021/01/11 08:26:49;;;;;;;32.03;20.93;;;-2.10;99.90;;;;;;5035318;28;20412;-56
2021/01/11 08:29:15;;;;;;;28.53;19.73;;;-2.10;99.90;;;;;;5027945;28;20847;-56
2021/01/11 08:31:43;;;;;;;29.00;21.10;;;-2.10;99.90;;;;;;5016904;28;20911;-57
2021/01/11 08:34:09;;;;;;;28.50;21.30;;;-2.10;99.90;;;;;;5016539;28;20415;-56
2021/01/11 08:36:34;;;;;;;23.37;19.10;;;-2.10;99.90;;;;;;5017079;28;20430;-54
2021/01/11 08:39:08;;;;;;;28.00;18.93;;;-2.10;99.90;;;;;;5016690;28;20194;-57
2021/01/11 08:41:39;;;;;;;28.20;21.27;;;-2.10;99.90;;;;;;5017171;28;20156;-56
2021/01/11 08:44:05;;;;;;;27.40;20.13;;;-1.90;99.90;;;;;;5016642;28;20399;-57
2021/01/11 08:46:50;;;;;;;27.27;21.40;;;-1.80;99.90;;;;;;5015711;28;20415;-57
2021/01/11 08:49:16;;;;;;;30.57;19.67;;;-1.70;99.90;;;;;;5017138;28;20419;-57
2021/01/11 08:51:41;;;;;;;32.67;21.53;;;-1.70;99.90;;;;;;5017444;28;20399;-57
2021/01/11 08:54:07;;;;;;;32.00;21.43;;;-1.60;99.90;;;;;;5018230;28;20172;-57
2021/01/11 08:56:35;;;;;;;29.87;21.00;;;-1.50;99.90;;;;;;5017082;28;20169;-54
2021/01/11 08:59:01;;;;;;;31.30;20.60;;;-1.40;99.90;;;;;;5016539;28;20660;-56
2021/01/11 09:01:34;;;;;;;30.50;20.50;;;-1.30;99.90;;;;;;5017318;28;20903;-57
2021/01/11 09:04:00;;;;;;;25.80;18.50;;;-1.30;99.90;;;;;;5017564;28;20400;-53
2021/01/11 09:06:45;;;;;;;29.73;19.60;;;-1.20;99.90;;;;;;5017106;28;20490;-56
2021/01/11 09:09:15;;;;;;;30.97;19.70;;;-1.20;99.90;;;;;;5018247;28;20200;-54
2021/01/11 09:11:43;;;;;;;31.77;20.40;;;-1.50;99.90;;;;;;5017019;28;20457;-57
2021/01/11 09:14:15;;;;;;;28.20;18.20;;;-1.60;99.90;;;;;;5018266;28;20473;-56
2021/01/11 09:16:42;;;;;;;27.83;19.03;;;-1.50;99.90;;;;;;5020642;28;20482;-57
2021/01/11 09:19:26;;;;;;;27.47;19.57;;;-1.50;99.90;;;;;;5020645;28;20419;-57
2021/01/11 09:22:15;;;;;;;26.63;18.90;;;-1.40;99.90;;;;;;5021261;28;20470;-56
2021/01/11 09:24:41;;;;;;;26.60;19.50;;;-1.30;99.90;;;;;;5002158;28;20522;-54
2021/01/11 09:27:07;;;;;;;26.10;18.30;;;-1.10;99.90;;;;;;5020094;28;20403;-54
2021/01/11 09:29:33;;;;;;;25.57;17.80;;;-1.30;99.90;;;;;;5018779;28;20430;-57
2021/01/11 09:31:58;;;;;;;25.43;18.10;;;-1.00;99.90;;;;;;5018787;28;20567;-55
2021/01/11 09:34:24;;;;;;;23.47;18.30;;;-1.10;99.90;;;;;;5010888;28;20180;-57
2021/01/11 09:36:50;;;;;;;26.97;19.40;;;-0.80;99.90;;;;;;5021586;28;20176;-56
2021/01/11 09:39:16;;;;;;;24.37;18.70;;;-0.70;99.90;;;;;;5019228;28;20212;-56
2021/01/11 09:41:50;;;;;;;27.20;18.57;;;-0.60;99.90;;;;;;5017850;28;20182;-57
2021/01/11 09:44:16;;;;;;;28.70;18.93;;;-0.80;99.90;;;;;;5014776;28;20906;-58
2021/01/11 09:46:45;;;;;;;30.20;19.93;;;-0.60;99.90;;;;;;5014974;28;20782;-58
2021/01/11 09:49:11;;;;;;;25.33;19.00;;;-0.80;99.90;;;;;;5013871;28;20470;-58
2021/01/11 09:51:36;;;;;;;26.87;17.20;;;-0.70;99.90;;;;;;5014589;28;20408;-58
2021/01/11 09:54:02;;;;;;;23.53;17.10;;;-0.60;99.90;;;;;;5014377;28;20411;-59
2021/01/11 09:56:28;;;;;;;24.87;17.33;;;-0.60;99.90;;;;;;4999128;28;20255;-58
2021/01/11 09:58:54;;;;;;;26.10;18.13;;;-0.50;99.90;;;;;;5018484;28;20427;-60
2021/01/11 10:01:20;;;;;;;26.50;18.57;;;-0.30;99.90;;;;;;5016746;28;20196;-60
2021/01/11 10:03:48;;;;;;;26.10;18.70;;;-0.10;99.90;;;;;;5014298;28;20411;-59
2021/01/11 10:06:14;;;;;;;25.30;17.07;;;-0.30;99.90;;;;;;5014508;28;20413;-59
2021/01/11 10:08:40;;;;;;;24.33;16.50;;;-0.20;99.90;;;;;;5014062;28;20453;-59
2021/01/11 10:11:15;;;;;;;24.30;16.60;;;0.00;99.90;;;;;;5013970;28;20431;-60
2021/01/11 10:13:41;;;;;;;23.13;15.70;;;0.20;99.90;;;;;;5013900;28;20451;-59
2021/01/11 10:16:08;;;;;;;21.20;15.20;;;0.20;99.90;;;;;;5014472;28;20411;-57
2021/01/11 10:18:34;;;;;;;25.23;17.03;;;0.20;99.90;;;;;;5015336;28;20223;-59
2021/01/11 10:20:59;;;;;;;22.20;17.13;;;0.10;99.90;;;;;;5015341;28;20419;-58
2021/01/11 10:23:25;;;;;;;21.73;15.60;;;0.10;99.90;;;;;;5015220;28;20635;-59
2021/01/11 10:25:51;;;;;;;21.60;16.17;;;0.10;99.90;;;;;;5018170;28;20169;-59
2021/01/11 10:28:17;;;;;;;27.63;17.70;;;0.20;99.90;;;;;;5014524;28;20419;-59
2021/01/11 10:30:42;;;;;;;29.00;16.90;;;0.10;99.90;;;;;;5013639;28;20198;-60
2021/01/11 10:33:08;;;;;;;21.47;16.07;;;-0.10;99.90;;;;;;5013748;28;20326;-60
2021/01/11 10:35:34;;;;;;;21.97;14.83;;;0.20;99.90;;;;;;5013785;28;20244;-60
2021/01/11 10:37:59;;;;;;;24.60;17.37;;;0.20;99.90;;;;;;5013790;28;20198;-59
2021/01/11 10:40:25;;;;;;;19.57;14.37;;;0.20;99.90;;;;;;5013046;28;20432;-59
2021/01/11 10:42:51;;;;;;;24.33;15.93;;;0.30;99.90;;;;;;5013594;28;20184;-59
2021/01/11 10:45:16;;;;;;;26.17;16.80;;;0.40;99.90;;;;;;5013623;28;20209;-59
2021/01/11 10:47:42;;;;;;;26.40;16.40;;;0.30;99.90;;;;;;5012061;28;20181;-62
2021/01/11 10:50:08;;;;;;;23.50;18.00;;;0.50;99.90;;;;;;5013766;28;20683;-60
2021/01/11 10:52:34;;;;;;;24.10;17.20;;;0.80;99.90;;;;;;5013618;28;20202;-59
2021/01/11 10:55:00;;;;;;;28.40;16.30;;;0.90;99.90;;;;;;5013586;28;20409;-58
2021/01/11 10:57:25;;;;;;;23.63;15.33;;;1.00;99.90;;;;;;5014489;28;20221;-61
2021/01/11 10:59:51;;;;;;;26.80;17.47;;;1.00;99.90;;;;;;5013910;28;20179;-56
2021/01/11 11:02:16;;;;;;;21.73;15.37;;;1.00;99.90;;;;;;5013206;28;20643;-59
2021/01/11 11:04:42;;;;;;;20.13;14.33;;;1.20;99.90;;;;;;5012764;28;20541;-60
2021/01/11 11:07:07;;;;;;;25.50;16.63;;;1.30;99.90;;;;;;4995576;28;20170;-59
2021/01/11 11:09:33;;;;;;;35.30;17.23;;;1.40;99.90;;;;;;5014175;28;20196;-61
2021/01/11 11:11:59;;;;;;;19.07;13.80;;;2.10;99.90;;;;;;5017109;28;20539;-58
2021/01/11 11:14:24;;;;;;;22.67;14.70;;;3.20;99.90;;;;;;5017465;28;20891;-59
2021/01/11 11:16:52;;;;;;;13.93;11.10;;;3.80;99.90;;;;;;5017250;28;20607;-61
2021/01/11 11:19:18;;;;;;;16.57;11.90;;;3.50;99.80;;;;;;5016083;28;20187;-59
2021/01/11 11:21:44;;;;;;;16.93;12.97;;;3.60;99.60;;;;;;5017364;28;20415;-59
2021/01/11 11:24:09;;;;;;;16.67;12.90;;;3.90;99.90;;;;;;5016934;28;20164;-60
2021/01/11 11:26:35;;;;;;;16.37;13.20;;;4.60;98.80;;;;;;4998443;28;20234;-59
2021/01/11 11:29:00;;;;;;;18.90;13.27;;;5.50;97.70;;;;;;5017353;28;20176;-58
2021/01/11 11:31:30;;;;;;;15.67;12.07;;;6.60;95.70;;;;;;5016801;28;20184;-58
2021/01/11 11:33:56;;;;;;;17.13;12.60;;;7.10;93.60;;;;;;5017019;28;20184;-57
2021/01/11 11:36:21;;;;;;;22.30;12.53;;;7.10;92.90;;;;;;5016390;28;20829;-59
2021/01/11 11:38:47;;;;;;;24.47;15.67;;;6.60;93.20;;;;;;5016698;28;20172;-59
2021/01/11 11:41:12;;;;;;;16.87;12.70;;;7.20;92.50;;;;;;5017363;28;20195;-60
2021/01/11 11:43:38;;;;;;;16.50;12.63;;;6.90;92.20;;;;;;5015732;28;20214;-59
2021/01/11 11:46:04;;;;;;;20.40;13.87;;;8.50;91.40;;;;;;5016514;28;20195;-59
2021/01/11 11:48:29;;;;;;;18.93;14.03;;;9.20;89.40;;;;;;5015298;28;20204;-59
2021/01/11 11:50:55;;;;;;;15.23;11.73;;;10.70;81.80;;;;;;5016572;28;20301;-62
2021/01/11 11:53:22;;;;;;;17.47;12.70;;;11.20;76.90;;;;;;5016445;28;20248;-58
2021/01/11 11:55:47;;;;;;;16.53;13.00;;;9.60;77.20;;;;;;4998037;28;20177;-60
2021/01/11 11:58:13;;;;;;;17.80;13.37;;;9.30;80.50;;;;;;5017098;28;20765;-58
2021/01/11 12:00:38;;;;;;;15.90;12.60;;;9.50;79.30;;;;;;5017207;28;20593;-58
2021/01/11 12:03:04;;;;;;;14.83;13.33;;;10.00;78.10;;;;;;5016004;28;20224;-59
2021/01/11 12:05:29;;;;;;;17.87;14.00;;;10.20;75.20;;;;;;5017321;28;20177;-59
2021/01/11 12:07:55;;;;;;;16.93;13.60;;;9.60;75.80;;;;;;5017560;28;20169;-58
2021/01/11 12:10:21;;;;;;;18.13;14.43;;;9.90;76.80;;;;;;5017305;28;20237;-59
2021/01/11 12:12:47;;;;;;;19.53;14.90;;;10.30;74.90;;;;;;5019524;28;20193;-54
2021/01/11 12:15:14;;;;;;;16.33;12.80;;;11.00;71.80;;;;;;5019784;28;20179;-60
2021/01/11 12:17:41;;;;;;;14.80;12.23;;;11.00;71.40;;;;;;4999778;28;20434;-58
2021/01/11 12:20:08;;;;;;;15.73;12.20;;;11.60;70.30;;;;;;5015851;28;20504;-58
2021/01/11 12:22:35;;;;;;;15.93;13.13;;;12.70;68.20;;;;;;5015999;28;20510;-57
2021/01/11 12:25:01;;;;;;;14.03;12.43;;;11.50;66.20;;;;;;5017895;28;20418;-55
2021/01/11 12:27:26;;;;;;;15.70;13.30;;;10.70;69.10;;;;;;5018972;28;20443;-56
2021/01/11 12:29:52;;;;;;;15.10;11.70;;;9.90;71.50;;;;;;5034402;28;20233;-56
2021/01/11 12:32:18;;;;;;;15.33;12.40;;;9.90;73.60;;;;;;5037132;28;20213;-56
2021/01/11 12:34:43;;;;;;;16.53;13.40;;;11.30;70.60;;;;;;5035929;28;20174;-60
2021/01/11 12:37:13;;;;;;;14.50;12.70;;;11.50;66.90;;;;;;5017736;28;20422;-56